sensor_id;sensor_type;location;lat;lon;timestamp;P1;durP1;ratioP1;P2;durP2;ratioP2
55559;SDS011;41414;53.250;6.514;2022-08-03T00:01:57;12.90;;;3.78;;
55559;SDS011;41414;53.250;6.514;2022-08-03T00:04:23;13.68;;;4.93;;
55559;SDS011;41414;53.250;6.514;2022-08-03T00:06:49;11.07;;;3.50;;
55559;SDS011;41414;53.250;6.514;2022-08-03T00:09:15;9.15;;;3.83;;
55559;SDS011;41414;53.250;6.514;2022-08-03T00:11:42;7.25;;;3.30;;
55559;SDS011;41414;53.250;6.514;2022-08-03T00:14:08;8.50;;;3.72;;
55559;SDS011;41414;53.250;6.514;2022-08-03T00:16:34;13.73;;;4.28;;
55559;SDS011;41414;53.250;6.514;2022-08-03T00:19:00;10.60;;;3.92;;
55559;SDS011;41414;53.250;6.514;2022-08-03T00:21:27;9.48;;;3.38;;
55559;SDS011;41414;53.250;6.514;2022-08-03T00:23:53;9.05;;;3.65;;
55559;SDS011;41414;53.250;6.514;2022-08-03T00:26:20;6.93;;;3.53;;
55559;SDS011;41414;53.250;6.514;2022-08-03T00:28:46;13.63;;;3.85;;
55559;SDS011;41414;53.250;6.514;2022-08-03T00:31:12;9.07;;;4.10;;
55559;SDS011;41414;53.250;6.514;2022-08-03T00:33:38;11.98;;;3.85;;
55559;SDS011;41414;53.250;6.514;2022-08-03T00:36:04;11.77;;;3.72;;
55559;SDS011;41414;53.250;6.514;2022-08-03T00:38:31;12.45;;;5.25;;
55559;SDS011;41414;53.250;6.514;2022-08-03T00:40:57;12.20;;;3.20;;
55559;SDS011;41414;53.250;6.514;2022-08-03T00:43:24;7.80;;;3.88;;
55559;SDS011;41414;53.250;6.514;2022-08-03T00:45:51;8.27;;;3.67;;
55559;SDS011;41414;53.250;6.514;2022-08-03T00:48:19;11.93;;;3.13;;
55559;SDS011;41414;53.250;6.514;2022-08-03T00:50:45;12.73;;;3.72;;
55559;SDS011;41414;53.250;6.514;2022-08-03T00:53:12;10.50;;;3.58;;
55559;SDS011;41414;53.250;6.514;2022-08-03T00:55:39;9.43;;;3.33;;
55559;SDS011;41414;53.250;6.514;2022-08-03T00:58:06;8.27;;;4.05;;
55559;SDS011;41414;53.250;6.514;2022-08-03T01:00:34;14.02;;;3.92;;
55559;SDS011;41414;53.250;6.514;2022-08-03T01:03:02;11.25;;;3.88;;
55559;SDS011;41414;53.250;6.514;2022-08-03T01:05:29;8.60;;;4.13;;
55559;SDS011;41414;53.250;6.514;2022-08-03T01:08:00;11.88;;;4.10;;
55559;SDS011;41414;53.250;6.514;2022-08-03T01:13:23;7.75;;;3.67;;
55559;SDS011;41414;53.250;6.514;2022-08-03T01:16:02;13.40;;;4.30;;
55559;SDS011;41414;53.250;6.514;2022-08-03T01:18:37;9.88;;;3.92;;
55559;SDS011;41414;53.250;6.514;2022-08-03T01:21:08;9.40;;;3.78;;
55559;SDS011;41414;53.250;6.514;2022-08-03T01:23:45;8.05;;;3.20;;
55559;SDS011;41414;53.250;6.514;2022-08-03T01:31:17;12.07;;;4.35;;
55559;SDS011;41414;53.250;6.514;2022-08-03T01:33:46;10.63;;;3.28;;
55559;SDS011;41414;53.250;6.514;2022-08-03T01:36:17;17.38;;;3.85;;
55559;SDS011;41414;53.250;6.514;2022-08-03T01:38:45;10.52;;;3.70;;
55559;SDS011;41414;53.250;6.514;2022-08-03T01:41:16;15.20;;;4.07;;
55559;SDS011;41414;53.250;6.514;2022-08-03T01:43:43;12.50;;;3.45;;
55559;SDS011;41414;53.250;6.514;2022-08-03T01:46:13;9.10;;;3.60;;
55559;SDS011;41414;53.250;6.514;2022-08-03T01:48:40;10.02;;;3.75;;
55559;SDS011;41414;53.250;6.514;2022-08-03T01:51:07;10.32;;;3.17;;
55559;SDS011;41414;53.250;6.514;2022-08-03T01:53:34;9.93;;;3.15;;
55559;SDS011;41414;53.250;6.514;2022-08-03T01:56:01;6.38;;;3.15;;
55559;SDS011;41414;53.250;6.514;2022-08-03T01:58:28;11.73;;;3.17;;
55559;SDS011;41414;53.250;6.514;2022-08-03T02:00:54;9.90;;;3.72;;
55559;SDS011;41414;53.250;6.514;2022-08-03T02:03:25;10.93;;;3.15;;
55559;SDS011;41414;53.250;6.514;2022-08-03T02:05:51;10.07;;;3.03;;
55559;SDS011;41414;53.250;6.514;2022-08-03T02:08:18;9.75;;;3.03;;
55559;SDS011;41414;53.250;6.514;2022-08-03T02:10:44;10.10;;;3.30;;
55559;SDS011;41414;53.250;6.514;2022-08-03T02:13:11;7.85;;;2.88;;
55559;SDS011;41414;53.250;6.514;2022-08-03T02:15:38;8.90;;;3.08;;
55559;SDS011;41414;53.250;6.514;2022-08-03T02:18:06;10.77;;;3.50;;
55559;SDS011;41414;53.250;6.514;2022-08-03T02:20:33;11.10;;;3.13;;
55559;SDS011;41414;53.250;6.514;2022-08-03T02:23:03;10.15;;;3.28;;
55559;SDS011;41414;53.250;6.514;2022-08-03T02:25:31;9.98;;;2.70;;
55559;SDS011;41414;53.250;6.514;2022-08-03T02:27:58;9.40;;;3.15;;
55559;SDS011;41414;53.250;6.514;2022-08-03T02:30:28;12.75;;;3.08;;
55559;SDS011;41414;53.250;6.514;2022-08-03T02:32:55;6.88;;;3.00;;
55559;SDS011;41414;53.250;6.514;2022-08-03T02:35:23;8.90;;;3.00;;
55559;SDS011;41414;53.250;6.514;2022-08-03T02:37:52;12.13;;;3.10;;
55559;SDS011;41414;53.250;6.514;2022-08-03T02:40:20;12.88;;;3.95;;
55559;SDS011;41414;53.250;6.514;2022-08-03T02:42:48;15.43;;;3.67;;
55559;SDS011;41414;53.250;6.514;2022-08-03T02:45:17;9.02;;;3.08;;
55559;SDS011;41414;53.250;6.514;2022-08-03T02:47:44;11.40;;;3.42;;
55559;SDS011;41414;53.250;6.514;2022-08-03T02:50:13;11.07;;;2.47;;
55559;SDS011;41414;53.250;6.514;2022-08-03T02:52:41;7.15;;;2.92;;
55559;SDS011;41414;53.250;6.514;2022-08-03T02:55:09;11.27;;;3.70;;
55559;SDS011;41414;53.250;6.514;2022-08-03T02:57:36;10.57;;;3.08;;
55559;SDS011;41414;53.250;6.514;2022-08-03T03:00:03;6.80;;;3.38;;
55559;SDS011;41414;53.250;6.514;2022-08-03T03:02:29;11.27;;;2.80;;
55559;SDS011;41414;53.250;6.514;2022-08-03T03:04:56;9.95;;;2.72;;
55559;SDS011;41414;53.250;6.514;2022-08-03T03:07:23;11.80;;;3.28;;
55559;SDS011;41414;53.250;6.514;2022-08-03T03:09:49;11.95;;;3.20;;
55559;SDS011;41414;53.250;6.514;2022-08-03T03:12:16;11.93;;;2.97;;
55559;SDS011;41414;53.250;6.514;2022-08-03T03:14:42;10.05;;;3.25;;
55559;SDS011;41414;53.250;6.514;2022-08-03T03:17:09;8.07;;;3.22;;
55559;SDS011;41414;53.250;6.514;2022-08-03T03:19:36;11.75;;;3.20;;
55559;SDS011;41414;53.250;6.514;2022-08-03T03:22:04;8.88;;;3.72;;
55559;SDS011;41414;53.250;6.514;2022-08-03T03:24:31;7.72;;;3.08;;
55559;SDS011;41414;53.250;6.514;2022-08-03T03:26:57;12.45;;;4.55;;
55559;SDS011;41414;53.250;6.514;2022-08-03T03:29:23;8.15;;;3.05;;
55559;SDS011;41414;53.250;6.514;2022-08-03T03:31:50;8.85;;;3.63;;
55559;SDS011;41414;53.250;6.514;2022-08-03T03:34:16;7.47;;;3.25;;
55559;SDS011;41414;53.250;6.514;2022-08-03T03:36:43;9.73;;;3.65;;
55559;SDS011;41414;53.250;6.514;2022-08-03T03:39:09;12.00;;;3.42;;
55559;SDS011;41414;53.250;6.514;2022-08-03T03:41:36;15.63;;;3.60;;
55559;SDS011;41414;53.250;6.514;2022-08-03T03:44:02;8.82;;;3.42;;
55559;SDS011;41414;53.250;6.514;2022-08-03T03:46:28;14.30;;;3.75;;
55559;SDS011;41414;53.250;6.514;2022-08-03T03:48:55;9.02;;;2.97;;
55559;SDS011;41414;53.250;6.514;2022-08-03T03:51:21;8.93;;;3.28;;
55559;SDS011;41414;53.250;6.514;2022-08-03T03:53:54;9.10;;;4.03;;
55559;SDS011;41414;53.250;6.514;2022-08-03T03:56:20;13.70;;;3.88;;
55559;SDS011;41414;53.250;6.514;2022-08-03T03:58:46;10.90;;;3.95;;
55559;SDS011;41414;53.250;6.514;2022-08-03T04:01:13;11.02;;;3.70;;
55559;SDS011;41414;53.250;6.514;2022-08-03T04:03:39;8.23;;;3.83;;
55559;SDS011;41414;53.250;6.514;2022-08-03T04:06:05;11.93;;;3.15;;
55559;SDS011;41414;53.250;6.514;2022-08-03T04:08:50;14.05;;;3.92;;
55559;SDS011;41414;53.250;6.514;2022-08-03T04:14:12;9.15;;;3.38;;
55559;SDS011;41414;53.250;6.514;2022-08-03T04:16:42;9.20;;;3.88;;
55559;SDS011;41414;53.250;6.514;2022-08-03T04:19:11;12.23;;;4.05;;
55559;SDS011;41414;53.250;6.514;2022-08-03T04:21:40;10.80;;;3.90;;
55559;SDS011;41414;53.250;6.514;2022-08-03T04:24:08;13.52;;;4.50;;
55559;SDS011;41414;53.250;6.514;2022-08-03T04:26:35;12.27;;;4.05;;
55559;SDS011;41414;53.250;6.514;2022-08-03T04:29:03;12.10;;;4.20;;
55559;SDS011;41414;53.250;6.514;2022-08-03T04:31:30;11.98;;;4.20;;
55559;SDS011;41414;53.250;6.514;2022-08-03T04:33:56;8.35;;;3.72;;
55559;SDS011;41414;53.250;6.514;2022-08-03T04:36:24;7.10;;;4.07;;
55559;SDS011;41414;53.250;6.514;2022-08-03T04:38:53;8.93;;;4.53;;
55559;SDS011;41414;53.250;6.514;2022-08-03T04:41:21;13.35;;;4.38;;
55559;SDS011;41414;53.250;6.514;2022-08-03T04:43:49;10.70;;;4.35;;
55559;SDS011;41414;53.250;6.514;2022-08-03T04:46:16;13.50;;;4.00;;
55559;SDS011;41414;53.250;6.514;2022-08-03T04:48:43;12.35;;;3.88;;
55559;SDS011;41414;53.250;6.514;2022-08-03T04:51:10;13.77;;;4.95;;
55559;SDS011;41414;53.250;6.514;2022-08-03T04:53:37;14.90;;;4.53;;
55559;SDS011;41414;53.250;6.514;2022-08-03T04:56:03;10.05;;;4.13;;
55559;SDS011;41414;53.250;6.514;2022-08-03T04:58:30;16.30;;;4.20;;
55559;SDS011;41414;53.250;6.514;2022-08-03T05:00:56;9.82;;;4.53;;
55559;SDS011;41414;53.250;6.514;2022-08-03T05:03:22;15.40;;;5.00;;
55559;SDS011;41414;53.250;6.514;2022-08-03T05:05:48;13.32;;;4.55;;
55559;SDS011;41414;53.250;6.514;2022-08-03T05:08:14;10.15;;;4.00;;
55559;SDS011;41414;53.250;6.514;2022-08-03T05:10:41;15.63;;;4.90;;
55559;SDS011;41414;53.250;6.514;2022-08-03T05:13:07;13.93;;;4.18;;
55559;SDS011;41414;53.250;6.514;2022-08-03T05:15:37;17.00;;;4.35;;
55559;SDS011;41414;53.250;6.514;2022-08-03T05:18:03;14.93;;;4.43;;
55559;SDS011;41414;53.250;6.514;2022-08-03T05:20:29;16.15;;;4.25;;
55559;SDS011;41414;53.250;6.514;2022-08-03T05:22:55;10.43;;;4.47;;
55559;SDS011;41414;53.250;6.514;2022-08-03T05:25:23;10.63;;;4.55;;
55559;SDS011;41414;53.250;6.514;2022-08-03T05:27:49;10.27;;;3.97;;
55559;SDS011;41414;53.250;6.514;2022-08-03T05:30:15;12.55;;;4.18;;
55559;SDS011;41414;53.250;6.514;2022-08-03T05:32:41;15.35;;;4.13;;
55559;SDS011;41414;53.250;6.514;2022-08-03T05:35:07;12.43;;;4.18;;
55559;SDS011;41414;53.250;6.514;2022-08-03T05:37:34;13.40;;;4.68;;
55559;SDS011;41414;53.250;6.514;2022-08-03T05:40:00;15.75;;;4.13;;
55559;SDS011;41414;53.250;6.514;2022-08-03T05:42:27;12.88;;;4.35;;
55559;SDS011;41414;53.250;6.514;2022-08-03T05:44:53;15.80;;;4.55;;
55559;SDS011;41414;53.250;6.514;2022-08-03T05:47:19;13.80;;;4.18;;
55559;SDS011;41414;53.250;6.514;2022-08-03T05:49:45;13.98;;;4.38;;
55559;SDS011;41414;53.250;6.514;2022-08-03T05:52:11;11.43;;;4.40;;
55559;SDS011;41414;53.250;6.514;2022-08-03T05:54:38;12.40;;;5.25;;
55559;SDS011;41414;53.250;6.514;2022-08-03T05:57:04;11.00;;;3.95;;
55559;SDS011;41414;53.250;6.514;2022-08-03T05:59:30;15.55;;;5.18;;
55559;SDS011;41414;53.250;6.514;2022-08-03T06:01:56;12.25;;;4.55;;
55559;SDS011;41414;53.250;6.514;2022-08-03T06:04:22;11.32;;;4.60;;
55559;SDS011;41414;53.250;6.514;2022-08-03T06:06:49;14.00;;;4.60;;
55559;SDS011;41414;53.250;6.514;2022-08-03T06:09:15;12.30;;;4.18;;
55559;SDS011;41414;53.250;6.514;2022-08-03T06:11:42;18.35;;;4.63;;
55559;SDS011;41414;53.250;6.514;2022-08-03T06:14:08;15.80;;;4.57;;
55559;SDS011;41414;53.250;6.514;2022-08-03T06:16:34;15.60;;;5.40;;
55559;SDS011;41414;53.250;6.514;2022-08-03T06:19:00;12.35;;;4.93;;
55559;SDS011;41414;53.250;6.514;2022-08-03T06:21:26;12.75;;;4.63;;
55559;SDS011;41414;53.250;6.514;2022-08-03T06:23:52;17.10;;;4.28;;
55559;SDS011;41414;53.250;6.514;2022-08-03T06:26:18;20.45;;;4.78;;
55559;SDS011;41414;53.250;6.514;2022-08-03T06:28:45;14.60;;;4.15;;
55559;SDS011;41414;53.250;6.514;2022-08-03T06:31:11;12.63;;;5.35;;
55559;SDS011;41414;53.250;6.514;2022-08-03T06:33:37;12.57;;;4.38;;
55559;SDS011;41414;53.250;6.514;2022-08-03T06:36:04;13.75;;;4.57;;
55559;SDS011;41414;53.250;6.514;2022-08-03T06:38:31;15.65;;;4.75;;
55559;SDS011;41414;53.250;6.514;2022-08-03T06:40:57;12.07;;;4.93;;
55559;SDS011;41414;53.250;6.514;2022-08-03T06:43:23;14.10;;;4.22;;
55559;SDS011;41414;53.250;6.514;2022-08-03T06:45:49;19.77;;;5.07;;
55559;SDS011;41414;53.250;6.514;2022-08-03T06:48:15;15.57;;;4.57;;
55559;SDS011;41414;53.250;6.514;2022-08-03T06:50:41;16.35;;;4.47;;
55559;SDS011;41414;53.250;6.514;2022-08-03T06:53:08;9.25;;;4.15;;
55559;SDS011;41414;53.250;6.514;2022-08-03T06:55:34;15.80;;;4.65;;
55559;SDS011;41414;53.250;6.514;2022-08-03T06:58:01;10.68;;;4.93;;
55559;SDS011;41414;53.250;6.514;2022-08-03T07:00:27;12.38;;;4.85;;
55559;SDS011;41414;53.250;6.514;2022-08-03T07:02:54;15.93;;;5.18;;
55559;SDS011;41414;53.250;6.514;2022-08-03T07:05:21;17.83;;;4.75;;
55559;SDS011;41414;53.250;6.514;2022-08-03T07:07:47;13.50;;;5.72;;
55559;SDS011;41414;53.250;6.514;2022-08-03T07:10:13;17.08;;;4.35;;
55559;SDS011;41414;53.250;6.514;2022-08-03T07:12:39;15.90;;;5.13;;
55559;SDS011;41414;53.250;6.514;2022-08-03T07:15:06;13.25;;;4.35;;
55559;SDS011;41414;53.250;6.514;2022-08-03T07:17:33;14.48;;;4.57;;
55559;SDS011;41414;53.250;6.514;2022-08-03T07:20:00;8.20;;;4.25;;
55559;SDS011;41414;53.250;6.514;2022-08-03T07:22:26;13.45;;;4.40;;
55559;SDS011;41414;53.250;6.514;2022-08-03T07:24:53;10.27;;;4.50;;
55559;SDS011;41414;53.250;6.514;2022-08-03T07:27:20;16.05;;;4.53;;
55559;SDS011;41414;53.250;6.514;2022-08-03T07:29:46;14.00;;;4.80;;
55559;SDS011;41414;53.250;6.514;2022-08-03T07:32:12;11.90;;;5.38;;
55559;SDS011;41414;53.250;6.514;2022-08-03T07:34:39;26.70;;;6.03;;
55559;SDS011;41414;53.250;6.514;2022-08-03T07:37:05;20.20;;;5.00;;
55559;SDS011;41414;53.250;6.514;2022-08-03T07:39:31;13.75;;;5.00;;
55559;SDS011;41414;53.250;6.514;2022-08-03T07:41:57;14.75;;;5.25;;
55559;SDS011;41414;53.250;6.514;2022-08-03T07:44:23;13.88;;;4.93;;
55559;SDS011;41414;53.250;6.514;2022-08-03T07:46:49;11.07;;;4.65;;
55559;SDS011;41414;53.250;6.514;2022-08-03T07:49:16;10.05;;;4.88;;
55559;SDS011;41414;53.250;6.514;2022-08-03T07:51:42;13.27;;;5.63;;
55559;SDS011;41414;53.250;6.514;2022-08-03T07:54:08;12.35;;;5.25;;
55559;SDS011;41414;53.250;6.514;2022-08-03T07:56:35;14.00;;;4.68;;
55559;SDS011;41414;53.250;6.514;2022-08-03T07:59:01;17.38;;;4.53;;
55559;SDS011;41414;53.250;6.514;2022-08-03T08:01:27;11.98;;;4.55;;
55559;SDS011;41414;53.250;6.514;2022-08-03T08:03:53;12.07;;;5.25;;
55559;SDS011;41414;53.250;6.514;2022-08-03T08:06:20;13.82;;;5.40;;
55559;SDS011;41414;53.250;6.514;2022-08-03T08:08:46;12.30;;;4.90;;
55559;SDS011;41414;53.250;6.514;2022-08-03T08:11:12;15.57;;;5.28;;
55559;SDS011;41414;53.250;6.514;2022-08-03T08:13:39;9.10;;;4.97;;
55559;SDS011;41414;53.250;6.514;2022-08-03T08:16:05;9.68;;;4.55;;
55559;SDS011;41414;53.250;6.514;2022-08-03T08:18:31;17.23;;;5.07;;
55559;SDS011;41414;53.250;6.514;2022-08-03T08:20:58;15.70;;;5.85;;
55559;SDS011;41414;53.250;6.514;2022-08-03T08:23:25;16.30;;;5.93;;
55559;SDS011;41414;53.250;6.514;2022-08-03T08:25:52;17.90;;;5.72;;
55559;SDS011;41414;53.250;6.514;2022-08-03T08:28:19;16.00;;;5.28;;
55559;SDS011;41414;53.250;6.514;2022-08-03T08:30:45;13.25;;;5.22;;
55559;SDS011;41414;53.250;6.514;2022-08-03T08:33:11;14.50;;;6.80;;
55559;SDS011;41414;53.250;6.514;2022-08-03T08:35:37;10.73;;;5.28;;
55559;SDS011;41414;53.250;6.514;2022-08-03T08:38:04;16.88;;;5.07;;
55559;SDS011;41414;53.250;6.514;2022-08-03T08:40:30;20.77;;;5.32;;
55559;SDS011;41414;53.250;6.514;2022-08-03T08:42:56;12.55;;;5.80;;
55559;SDS011;41414;53.250;6.514;2022-08-03T08:45:23;11.43;;;5.50;;
55559;SDS011;41414;53.250;6.514;2022-08-03T08:47:49;13.80;;;5.35;;
55559;SDS011;41414;53.250;6.514;2022-08-03T08:50:17;18.58;;;6.13;;
55559;SDS011;41414;53.250;6.514;2022-08-03T08:52:44;15.82;;;5.88;;
55559;SDS011;41414;53.250;6.514;2022-08-03T08:55:12;14.35;;;6.38;;
55559;SDS011;41414;53.250;6.514;2022-08-03T08:57:43;12.02;;;5.35;;
55559;SDS011;41414;53.250;6.514;2022-08-03T09:00:10;14.50;;;6.57;;
55559;SDS011;41414;53.250;6.514;2022-08-03T09:02:38;12.40;;;6.47;;
55559;SDS011;41414;53.250;6.514;2022-08-03T09:05:08;10.30;;;5.93;;
55559;SDS011;41414;53.250;6.514;2022-08-03T09:07:36;16.15;;;6.20;;
55559;SDS011;41414;53.250;6.514;2022-08-03T09:10:02;17.17;;;6.65;;
55559;SDS011;41414;53.250;6.514;2022-08-03T09:12:28;15.80;;;6.00;;
55559;SDS011;41414;53.250;6.514;2022-08-03T09:14:54;14.57;;;5.75;;
55559;SDS011;41414;53.250;6.514;2022-08-03T09:17:21;13.95;;;6.07;;
55559;SDS011;41414;53.250;6.514;2022-08-03T09:20:04;12.38;;;5.57;;
55559;SDS011;41414;53.250;6.514;2022-08-03T09:22:32;11.30;;;5.85;;
55559;SDS011;41414;53.250;6.514;2022-08-03T09:24:59;11.90;;;6.53;;
55559;SDS011;41414;53.250;6.514;2022-08-03T09:27:27;11.23;;;6.45;;
55559;SDS011;41414;53.250;6.514;2022-08-03T09:29:54;14.25;;;6.18;;
55559;SDS011;41414;53.250;6.514;2022-08-03T09:32:21;17.30;;;7.15;;
55559;SDS011;41414;53.250;6.514;2022-08-03T09:34:48;11.10;;;5.65;;
55559;SDS011;41414;53.250;6.514;2022-08-03T09:37:15;20.13;;;7.15;;
55559;SDS011;41414;53.250;6.514;2022-08-03T09:39:42;15.73;;;6.00;;
55559;SDS011;41414;53.250;6.514;2022-08-03T09:42:11;16.77;;;7.18;;
55559;SDS011;41414;53.250;6.514;2022-08-03T09:44:39;16.92;;;6.95;;
55559;SDS011;41414;53.250;6.514;2022-08-03T09:47:06;17.70;;;7.78;;
55559;SDS011;41414;53.250;6.514;2022-08-03T09:49:34;15.15;;;6.93;;
55559;SDS011;41414;53.250;6.514;2022-08-03T09:52:00;17.50;;;6.35;;
55559;SDS011;41414;53.250;6.514;2022-08-03T09:54:28;16.80;;;7.15;;
55559;SDS011;41414;53.250;6.514;2022-08-03T09:56:54;17.27;;;7.20;;
55559;SDS011;41414;53.250;6.514;2022-08-03T09:59:22;17.15;;;7.60;;
55559;SDS011;41414;53.250;6.514;2022-08-03T10:01:49;13.32;;;7.03;;
55559;SDS011;41414;53.250;6.514;2022-08-03T10:04:15;18.48;;;7.80;;
55559;SDS011;41414;53.250;6.514;2022-08-03T10:06:43;15.13;;;8.05;;
55559;SDS011;41414;53.250;6.514;2022-08-03T10:09:13;13.05;;;7.13;;
55559;SDS011;41414;53.250;6.514;2022-08-03T10:11:40;14.70;;;6.95;;
55559;SDS011;41414;53.250;6.514;2022-08-03T10:14:07;14.43;;;7.97;;
55559;SDS011;41414;53.250;6.514;2022-08-03T10:16:35;15.90;;;7.65;;
55559;SDS011;41414;53.250;6.514;2022-08-03T10:19:02;12.68;;;6.93;;
55559;SDS011;41414;53.250;6.514;2022-08-03T10:21:31;10.13;;;6.15;;
55559;SDS011;41414;53.250;6.514;2022-08-03T10:23:58;18.13;;;7.18;;
55559;SDS011;41414;53.250;6.514;2022-08-03T10:26:24;13.80;;;6.45;;
55559;SDS011;41414;53.250;6.514;2022-08-03T10:28:52;14.43;;;7.03;;
55559;SDS011;41414;53.250;6.514;2022-08-03T10:31:20;14.85;;;7.32;;
55559;SDS011;41414;53.250;6.514;2022-08-03T10:33:48;16.60;;;7.15;;
55559;SDS011;41414;53.250;6.514;2022-08-03T10:36:15;12.90;;;5.78;;
55559;SDS011;41414;53.250;6.514;2022-08-03T10:38:43;17.73;;;6.38;;
55559;SDS011;41414;53.250;6.514;2022-08-03T10:41:11;12.00;;;6.47;;
55559;SDS011;41414;53.250;6.514;2022-08-03T10:43:41;14.27;;;6.00;;
55559;SDS011;41414;53.250;6.514;2022-08-03T10:46:11;13.88;;;5.93;;
55559;SDS011;41414;53.250;6.514;2022-08-03T10:48:39;15.90;;;6.28;;
55559;SDS011;41414;53.250;6.514;2022-08-03T10:51:05;14.05;;;6.55;;
55559;SDS011;41414;53.250;6.514;2022-08-03T10:53:34;17.40;;;5.82;;
55559;SDS011;41414;53.250;6.514;2022-08-03T10:56:00;15.57;;;6.63;;
55559;SDS011;41414;53.250;6.514;2022-08-03T10:58:58;17.30;;;5.93;;
55559;SDS011;41414;53.250;6.514;2022-08-03T11:04:13;17.58;;;6.72;;
55559;SDS011;41414;53.250;6.514;2022-08-03T11:06:40;18.13;;;7.43;;
55559;SDS011;41414;53.250;6.514;2022-08-03T11:11:36;15.65;;;6.65;;
55559;SDS011;41414;53.250;6.514;2022-08-03T11:14:07;20.63;;;7.95;;
55559;SDS011;41414;53.250;6.514;2022-08-03T11:16:35;20.33;;;6.68;;
55559;SDS011;41414;53.250;6.514;2022-08-03T11:19:02;17.55;;;7.10;;
55559;SDS011;41414;53.250;6.514;2022-08-03T11:27:20;21.17;;;8.10;;
55559;SDS011;41414;53.250;6.514;2022-08-03T11:35:10;18.20;;;6.93;;
55559;SDS011;41414;53.250;6.514;2022-08-03T11:40:02;21.42;;;8.13;;
55559;SDS011;41414;53.250;6.514;2022-08-03T11:44:58;21.92;;;7.60;;
55559;SDS011;41414;53.250;6.514;2022-08-03T11:47:26;16.13;;;7.40;;
55559;SDS011;41414;53.250;6.514;2022-08-03T11:49:54;24.75;;;7.35;;
55559;SDS011;41414;53.250;6.514;2022-08-03T11:52:21;16.88;;;7.38;;
55559;SDS011;41414;53.250;6.514;2022-08-03T11:54:53;22.80;;;8.30;;
55559;SDS011;41414;53.250;6.514;2022-08-03T11:57:27;18.00;;;7.00;;
55559;SDS011;41414;53.250;6.514;2022-08-03T11:59:54;20.00;;;7.82;;
55559;SDS011;41414;53.250;6.514;2022-08-03T12:02:20;19.05;;;8.30;;
55559;SDS011;41414;53.250;6.514;2022-08-03T12:04:52;15.20;;;7.53;;
55559;SDS011;41414;53.250;6.514;2022-08-03T12:07:18;18.05;;;7.90;;
55559;SDS011;41414;53.250;6.514;2022-08-03T12:12:30;16.33;;;7.68;;
55559;SDS011;41414;53.250;6.514;2022-08-03T12:14:56;15.30;;;8.32;;
55559;SDS011;41414;53.250;6.514;2022-08-03T12:17:22;16.98;;;6.93;;
55559;SDS011;41414;53.250;6.514;2022-08-03T12:19:48;17.75;;;7.68;;
55559;SDS011;41414;53.250;6.514;2022-08-03T12:22:15;17.45;;;7.07;;
55559;SDS011;41414;53.250;6.514;2022-08-03T12:24:41;19.15;;;7.13;;
55559;SDS011;41414;53.250;6.514;2022-08-03T12:27:08;14.20;;;6.50;;
55559;SDS011;41414;53.250;6.514;2022-08-03T12:29:34;21.50;;;6.57;;
55559;SDS011;41414;53.250;6.514;2022-08-03T12:32:00;26.15;;;6.63;;
55559;SDS011;41414;53.250;6.514;2022-08-03T12:34:45;19.70;;;7.07;;
55559;SDS011;41414;53.250;6.514;2022-08-03T12:37:12;20.35;;;6.10;;
55559;SDS011;41414;53.250;6.514;2022-08-03T12:39:39;23.13;;;5.90;;
55559;SDS011;41414;53.250;6.514;2022-08-03T12:42:05;15.45;;;6.22;;
55559;SDS011;41414;53.250;6.514;2022-08-03T12:44:33;20.15;;;6.38;;
55559;SDS011;41414;53.250;6.514;2022-08-03T12:47:00;15.07;;;5.80;;
55559;SDS011;41414;53.250;6.514;2022-08-03T12:49:26;17.05;;;5.70;;
55559;SDS011;41414;53.250;6.514;2022-08-03T12:54:21;18.27;;;6.63;;
55559;SDS011;41414;53.250;6.514;2022-08-03T12:56:58;16.88;;;6.13;;
55559;SDS011;41414;53.250;6.514;2022-08-03T12:59:26;16.00;;;6.07;;
55559;SDS011;41414;53.250;6.514;2022-08-03T13:01:52;15.38;;;7.65;;
55559;SDS011;41414;53.250;6.514;2022-08-03T13:04:25;15.52;;;6.60;;
55559;SDS011;41414;53.250;6.514;2022-08-03T13:06:56;19.63;;;7.20;;
55559;SDS011;41414;53.250;6.514;2022-08-03T13:12:04;18.17;;;6.53;;
55559;SDS011;41414;53.250;6.514;2022-08-03T13:14:31;16.92;;;7.47;;
55559;SDS011;41414;53.250;6.514;2022-08-03T13:16:57;17.30;;;7.30;;
55559;SDS011;41414;53.250;6.514;2022-08-03T13:19:23;23.67;;;7.55;;
55559;SDS011;41414;53.250;6.514;2022-08-03T13:21:49;19.33;;;7.97;;
55559;SDS011;41414;53.250;6.514;2022-08-03T13:24:15;18.67;;;6.30;;
55559;SDS011;41414;53.250;6.514;2022-08-03T13:26:42;21.55;;;6.72;;
55559;SDS011;41414;53.250;6.514;2022-08-03T13:29:08;15.88;;;6.40;;
55559;SDS011;41414;53.250;6.514;2022-08-03T13:31:34;17.60;;;6.15;;
55559;SDS011;41414;53.250;6.514;2022-08-03T13:34:01;15.30;;;6.35;;
55559;SDS011;41414;53.250;6.514;2022-08-03T13:36:27;16.65;;;5.78;;
55559;SDS011;41414;53.250;6.514;2022-08-03T13:38:53;18.20;;;6.53;;
55559;SDS011;41414;53.250;6.514;2022-08-03T13:41:20;14.80;;;5.45;;
55559;SDS011;41414;53.250;6.514;2022-08-03T13:43:46;18.98;;;5.53;;
55559;SDS011;41414;53.250;6.514;2022-08-03T13:46:12;15.27;;;5.35;;
55559;SDS011;41414;53.250;6.514;2022-08-03T13:48:38;14.40;;;4.90;;
55559;SDS011;41414;53.250;6.514;2022-08-03T13:51:04;14.95;;;5.38;;
55559;SDS011;41414;53.250;6.514;2022-08-03T13:53:31;16.70;;;4.90;;
55559;SDS011;41414;53.250;6.514;2022-08-03T13:55:57;11.27;;;4.72;;
55559;SDS011;41414;53.250;6.514;2022-08-03T13:58:23;14.35;;;5.25;;
55559;SDS011;41414;53.250;6.514;2022-08-03T14:00:49;22.73;;;5.20;;
55559;SDS011;41414;53.250;6.514;2022-08-03T14:03:16;18.63;;;5.97;;
55559;SDS011;41414;53.250;6.514;2022-08-03T14:05:42;12.13;;;4.88;;
55559;SDS011;41414;53.250;6.514;2022-08-03T14:08:09;13.77;;;5.75;;
55559;SDS011;41414;53.250;6.514;2022-08-03T14:10:36;15.38;;;5.13;;
55559;SDS011;41414;53.250;6.514;2022-08-03T14:13:03;13.95;;;5.30;;
55559;SDS011;41414;53.250;6.514;2022-08-03T14:15:29;14.80;;;5.82;;
55559;SDS011;41414;53.250;6.514;2022-08-03T14:17:56;14.98;;;5.32;;
55559;SDS011;41414;53.250;6.514;2022-08-03T14:20:22;20.00;;;5.60;;
55559;SDS011;41414;53.250;6.514;2022-08-03T14:22:48;11.93;;;4.95;;
55559;SDS011;41414;53.250;6.514;2022-08-03T14:25:14;13.77;;;5.18;;
55559;SDS011;41414;53.250;6.514;2022-08-03T14:27:40;14.63;;;5.47;;
55559;SDS011;41414;53.250;6.514;2022-08-03T14:30:07;15.15;;;5.68;;
55559;SDS011;41414;53.250;6.514;2022-08-03T14:32:33;15.63;;;5.90;;
55559;SDS011;41414;53.250;6.514;2022-08-03T14:34:59;11.00;;;5.07;;
55559;SDS011;41414;53.250;6.514;2022-08-03T14:37:25;16.42;;;5.50;;
55559;SDS011;41414;53.250;6.514;2022-08-03T14:39:51;12.73;;;4.32;;
55559;SDS011;41414;53.250;6.514;2022-08-03T14:42:19;17.77;;;5.90;;
55559;SDS011;41414;53.250;6.514;2022-08-03T14:44:45;10.32;;;4.97;;
55559;SDS011;41414;53.250;6.514;2022-08-03T14:47:12;18.23;;;6.00;;
55559;SDS011;41414;53.250;6.514;2022-08-03T14:49:38;13.45;;;5.25;;
55559;SDS011;41414;53.250;6.514;2022-08-03T14:52:04;17.45;;;5.80;;
55559;SDS011;41414;53.250;6.514;2022-08-03T14:54:30;11.38;;;5.80;;
55559;SDS011;41414;53.250;6.514;2022-08-03T14:56:56;14.15;;;6.57;;
55559;SDS011;41414;53.250;6.514;2022-08-03T14:59:24;15.02;;;6.05;;
55559;SDS011;41414;53.250;6.514;2022-08-03T15:01:50;17.20;;;5.82;;
55559;SDS011;41414;53.250;6.514;2022-08-03T15:04:16;12.10;;;5.55;;
55559;SDS011;41414;53.250;6.514;2022-08-03T15:06:43;20.75;;;6.45;;
55559;SDS011;41414;53.250;6.514;2022-08-03T15:09:09;19.10;;;6.55;;
55559;SDS011;41414;53.250;6.514;2022-08-03T15:11:35;14.88;;;4.95;;
55559;SDS011;41414;53.250;6.514;2022-08-03T15:14:01;13.40;;;6.18;;
55559;SDS011;41414;53.250;6.514;2022-08-03T15:16:27;16.10;;;5.20;;